Time;durP1;ratioP1;P1;durP2;ratioP2;P2;SDS_P1;SDS_P2;PMS_P1;PMS_P2;Temp;Humidity;BMP_temperature;BMP_pressure;BME280_temperature;BME280_humidity;BME280_pressure;Samples;Min_cycle;Max_cycle;Signal;HPM_P1;HPM_P2
2023/08/29 00:00:27;;;;;;;86.80;82.90;;;;;;;21.94;46.36;101176.41;5040781;28;20034;-69
2023/08/29 00:02:53;;;;;;;84.70;80.80;;;;;;;21.93;46.71;101169.28;5044174;28;20108;-68
2023/08/29 00:05:19;;;;;;;86.28;82.47;;;;;;;21.91;46.82;101168.78;5041767;28;20034;-69
2023/08/29 00:07:45;;;;;;;86.72;82.88;;;;;;;21.91;46.89;101157.78;5041003;28;20135;-68
2023/08/29 00:10:11;;;;;;;87.85;83.85;;;;;;;21.90;46.34;101161.63;5040494;28;20032;-68
2023/08/29 00:12:37;;;;;;;85.57;81.78;;;;;;;21.88;46.50;101150.94;5042150;28;20269;-69
2023/08/29 00:15:06;;;;;;;85.57;81.80;;;;;;;21.87;46.64;101157.56;5042027;28;20371;-69
2023/08/29 00:17:31;;;;;;;86.32;82.03;;;;;;;21.85;46.27;101151.56;5040753;28;20036;-69
2023/08/29 00:19:57;;;;;;;85.75;81.95;;;;;;;21.84;46.88;101155.44;5041252;28;20045;-69
2023/08/29 00:22:22;;;;;;;87.35;83.45;;;;;;;21.83;46.73;101151.88;5039811;28;20047;-69
2023/08/29 00:24:48;;;;;;;85.38;81.57;;;;;;;21.81;46.77;101147.81;5047741;28;20451;-68
2023/08/29 00:27:15;;;;;;;84.78;81.03;;;;;;;21.79;46.92;101145.34;5036801;28;20083;-69
2023/08/29 00:29:43;;;;;;;84.72;80.85;;;;;;;21.78;46.43;101140.19;5048356;28;20104;-69
2023/08/29 00:32:09;;;;;;;82.90;79.10;;;;;;;21.76;46.88;101137.72;5049132;28;20049;-68
2023/08/29 00:34:35;;;;;;;83.25;79.47;;;;;;;21.75;46.85;101129.81;5042926;28;20040;-69
2023/08/29 00:37:00;;;;;;;82.82;79.07;;;;;;;21.74;46.75;101128.16;5045358;28;20037;-69
2023/08/29 00:39:25;;;;;;;84.63;80.82;;;;;;;21.73;46.41;101140.28;5044142;28;20425;-69
2023/08/29 00:41:51;;;;;;;82.40;78.70;;;;;;;21.72;46.64;101130.41;5045191;28;20033;-69
2023/08/29 00:44:17;;;;;;;83.00;79.30;;;;;;;21.70;46.65;101129.91;5045993;28;20041;-69
2023/08/29 00:46:44;;;;;;;84.32;80.45;;;;;;;21.68;46.78;101129.41;5046851;28;20377;-69
2023/08/29 00:49:11;;;;;;;84.32;80.55;;;;;;;21.67;46.85;101136.00;5046067;28;20060;-69
2023/08/29 00:51:37;;;;;;;84.38;80.53;;;;;;;21.66;46.83;101140.69;5042836;28;20025;-70
2023/08/29 00:54:03;;;;;;;83.88;79.63;;;;;;;21.65;46.32;101144.59;5052320;28;20029;-69
2023/08/29 00:56:29;;;;;;;84.93;81.10;;;;;;;21.64;46.32;101137.44;5038050;28;20124;-69
2023/08/29 00:58:54;;;;;;;83.85;80.05;;;;;;;21.62;46.69;101145.19;5047089;28;20029;-69
2023/08/29 01:01:20;;;;;;;85.78;81.57;;;;;;;21.61;46.54;101138.88;5047378;28;20120;-69
2023/08/29 01:03:47;;;;;;;81.95;78.28;;;;;;;21.59;46.52;101143.03;5042890;28;20036;-69
2023/08/29 01:06:14;;;;;;;83.43;79.72;;;;;;;21.57;46.81;101137.88;5045751;28;20037;-69
2023/08/29 01:08:40;;;;;;;84.18;80.38;;;;;;;21.56;46.39;101138.97;5043116;28;20034;-69
2023/08/29 01:11:36;;;;;;;82.90;79.10;;;;;;;21.54;46.37;101141.22;5048536;28;20033;-69
2023/08/29 01:14:25;;;;;;;85.50;81.70;;;;;;;21.49;46.71;101146.81;5044182;28;20139;-69
2023/08/29 01:17:07;;;;;;;82.60;78.80;;;;;;;21.49;46.89;101132.25;5045109;28;20525;-69
2023/08/29 01:19:37;;;;;;;83.25;79.47;;;;;;;21.47;46.88;101138.09;5043467;28;20029;-70
2023/08/29 01:22:24;;;;;;;82.40;78.60;;;;;;;21.46;46.42;101141.13;5042386;28;20051;-69
2023/08/29 01:24:57;;;;;;;80.50;76.85;;;;;;;21.44;46.84;101137.88;5036691;28;20095;-70
2023/08/29 01:27:25;;;;;;;82.35;78.65;;;;;;;21.43;46.38;101139.00;5046102;28;20025;-69
2023/08/29 01:29:50;;;;;;;81.22;77.63;;;;;;;21.42;46.63;101132.69;5046124;28;20132;-69
2023/08/29 01:32:18;;;;;;;84.32;80.43;;;;;;;21.41;46.50;101139.28;5044917;28;20053;-70
2023/08/29 01:34:44;;;;;;;81.93;78.15;;;;;;;21.39;46.62;101136.88;5042039;28;20047;-69
2023/08/29 01:37:10;;;;;;;81.20;77.50;;;;;;;21.39;46.43;101147.03;5039867;28;20033;-69
2023/08/29 01:39:36;;;;;;;84.70;80.80;;;;;;;21.37;46.67;101144.56;5044528;28;20132;-69
2023/08/29 01:42:01;;;;;;;81.47;77.85;;;;;;;21.36;46.68;101148.41;5041993;28;20044;-69
2023/08/29 01:44:27;;;;;;;83.20;79.40;;;;;;;21.35;46.37;101149.56;5045438;28;20558;-68
2023/08/29 01:46:52;;;;;;;82.80;79.10;;;;;;;21.34;46.49;101136.94;5045927;28;20128;-68
2023/08/29 01:49:17;;;;;;;82.25;78.50;;;;;;;21.33;46.31;101146.28;5046217;28;20539;-69
2023/08/29 01:51:43;;;;;;;81.30;77.57;;;;;;;21.32;46.54;101149.38;5039666;28;20033;-68
2023/08/29 01:54:09;;;;;;;79.43;75.82;;;;;;;21.30;46.78;101151.59;5044978;28;20040;-68
2023/08/29 01:56:36;;;;;;;83.18;79.38;;;;;;;21.30;46.65;101154.34;5039402;28;20068;-68
2023/08/29 01:59:02;;;;;;;81.80;77.80;;;;;;;21.28;46.43;101145.59;5042587;28;20034;-69
2023/08/29 02:01:29;;;;;;;80.18;76.57;;;;;;;21.27;46.63;101146.69;5048423;28;20033;-69
2023/08/29 02:03:55;;;;;;;81.72;78.03;;;;;;;21.24;46.33;101142.63;5041655;28;20037;-68
2023/08/29 02:06:20;;;;;;;81.90;78.20;;;;;;;21.23;46.92;101146.50;5042585;28;20367;-68
2023/08/29 02:08:46;;;;;;;82.20;78.40;;;;;;;21.22;46.82;101153.13;5038098;28;20037;-69
2023/08/29 02:11:11;;;;;;;82.15;78.50;;;;;;;21.22;46.65;101146.78;5044971;28;20090;-68
2023/08/29 02:13:36;;;;;;;80.18;76.53;;;;;;;21.19;46.73;101145.47;5046751;28;20477;-68
2023/08/29 02:16:02;;;;;;;80.47;76.78;;;;;;;21.18;46.83;101152.91;5043993;28;20029;-69
2023/08/29 02:18:28;;;;;;;78.45;74.95;;;;;;;21.18;46.46;101152.09;5037244;28;20442;-70
2023/08/29 02:20:54;;;;;;;79.72;76.13;;;;;;;21.15;46.47;101164.50;5039695;28;20040;-69
2023/08/29 02:23:20;;;;;;;81.00;77.38;;;;;;;21.14;46.64;101157.38;5046593;28;20086;-69
2023/08/29 02:25:45;;;;;;;80.40;76.72;;;;;;;21.13;46.32;101152.19;5042777;28;20064;-70
2023/08/29 02:28:11;;;;;;;77.72;74.22;;;;;;;21.12;46.54;101154.13;5041248;28;20038;-69
2023/08/29 02:30:36;;;;;;;79.05;75.45;;;;;;;21.11;46.44;101159.91;5043024;28;20102;-69
2023/08/29 02:33:02;;;;;;;77.22;73.70;;;;;;;21.09;46.97;101159.38;5040345;28;20524;-69
2023/08/29 02:35:27;;;;;;;77.47;73.97;;;;;;;21.07;46.72;101156.97;5038897;28;20029;-69
2023/08/29 02:37:53;;;;;;;79.47;75.88;;;;;;;21.05;46.21;101170.19;5040624;28;20052;-69
2023/08/29 02:40:19;;;;;;;78.05;74.55;;;;;;;21.04;46.67;101163.06;5042907;28;20037;-69
2023/08/29 02:42:45;;;;;;;82.63;78.93;;;;;;;21.04;46.49;101165.81;5047771;28;20481;-69
2023/08/29 02:45:11;;;;;;;79.82;76.15;;;;;;;21.03;46.74;101166.13;5040425;28;20062;-69
2023/08/29 02:47:37;;;;;;;81.63;77.80;;;;;;;21.01;46.81;101166.41;5043501;28;20043;-70
2023/08/29 02:50:03;;;;;;;80.78;76.97;;;;;;;21.01;46.37;101171.09;5049201;28;20059;-69
2023/08/29 02:52:29;;;;;;;79.95;76.35;;;;;;;21.00;46.24;101172.22;5042214;28;20068;-70
2023/08/29 02:54:54;;;;;;;80.60;76.90;;;;;;;20.99;46.26;101176.06;5040579;28;20562;-70
2023/08/29 02:57:20;;;;;;;80.10;76.50;;;;;;;20.98;46.84;101178.00;5043596;28;20034;-70
2023/08/29 02:59:45;;;;;;;81.15;77.45;;;;;;;20.95;46.77;101179.41;5043607;28;20427;-69
2023/08/29 03:02:10;;;;;;;77.82;74.20;;;;;;;20.93;46.46;101175.34;5037324;28;20075;-70
2023/08/29 03:04:36;;;;;;;79.35;75.70;;;;;;;20.92;46.43;101170.97;5043481;28;20052;-70
2023/08/29 03:07:04;;;;;;;79.10;75.20;;;;;;;20.90;46.79;101168.53;5042198;28;20064;-70
2023/08/29 03:09:29;;;;;;;79.95;76.35;;;;;;;20.89;46.36;101155.94;5039735;28;20395;-70
2023/08/29 03:11:55;;;;;;;79.07;75.55;;;;;;;20.89;46.77;101171.56;5042773;28;20116;-68
2023/08/29 03:14:20;;;;;;;78.78;75.20;;;;;;;20.87;46.47;101166.38;5041137;28;20112;-70
2023/08/29 03:16:45;;;;;;;78.38;74.78;;;;;;;20.86;46.37;101174.91;5043845;28;20473;-70
2023/08/29 03:19:11;;;;;;;78.05;74.47;;;;;;;20.85;46.27;101167.81;5045832;28;20037;-70
2023/08/29 03:21:36;;;;;;;78.00;74.45;;;;;;;20.83;46.53;101167.28;5044874;28;20039;-69
2023/08/29 03:24:02;;;;;;;78.60;75.00;;;;;;;20.81;46.69;101164.84;5049342;28;20079;-70
2023/08/29 03:26:27;;;;;;;78.28;74.72;;;;;;;20.79;46.76;101167.09;5042322;28;20516;-70
2023/08/29 03:28:53;;;;;;;80.00;76.40;;;;;;;20.78;46.32;101170.13;5038973;28;20491;-70
2023/08/29 03:31:18;;;;;;;76.32;72.85;;;;;;;20.75;46.66;101169.59;5046488;28;20045;-70
2023/08/29 03:33:44;;;;;;;79.10;75.45;;;;;;;20.76;46.73;101167.66;5036284;28;20033;-70
2023/08/29 03:36:10;;;;;;;79.32;75.70;;;;;;;20.73;46.61;101171.84;5041728;28;20116;-70
2023/08/29 03:38:38;;;;;;;79.22;75.20;;;;;;;20.73;46.52;101180.06;5048684;28;20033;-69
2023/08/29 03:41:04;;;;;;;77.70;73.95;;;;;;;20.71;46.61;101174.09;5042544;28;20033;-70
2023/08/29 03:43:31;;;;;;;76.30;72.85;;;;;;;20.70;46.75;101171.63;5044668;28;20047;-69
2023/08/29 03:46:00;;;;;;;76.65;73.25;;;;;;;20.70;46.69;101172.44;5039806;28;20047;-70
2023/08/29 03:48:26;;;;;;;78.93;75.43;;;;;;;20.67;46.66;101167.56;5042684;28;20064;-69
2023/08/29 03:50:52;;;;;;;77.10;73.60;;;;;;;20.65;46.64;101167.03;5042691;28;20056;-70
2023/08/29 03:53:17;;;;;;;77.88;74.28;;;;;;;20.64;46.25;101165.41;5042792;28;20065;-69
2023/08/29 03:55:43;;;;;;;78.95;75.38;;;;;;;20.62;46.36;101153.91;5042457;28;20032;-70
2023/08/29 03:58:08;;;;;;;77.05;73.63;;;;;;;20.62;46.35;101161.34;5040823;28;20033;-70
2023/08/29 04:00:34;;;;;;;77.07;73.47;;;;;;;20.61;46.76;101152.28;5041483;28;20045;-69
2023/08/29 04:03:00;;;;;;;76.30;72.82;;;;;;;20.60;46.47;101150.66;5041602;28;20041;-70
2023/08/29 04:05:26;;;;;;;77.85;74.35;;;;;;;20.57;46.67;101151.25;5040023;28;20029;-70
2023/08/29 04:07:51;;;;;;;77.78;74.18;;;;;;;20.57;46.11;101151.25;5044008;28;20469;-70
2023/08/29 04:10:17;;;;;;;74.45;71.10;;;;;;;20.56;46.29;101149.63;5042175;28;20029;-70
2023/08/29 04:12:43;;;;;;;76.50;73.05;;;;;;;20.54;46.65;101157.31;5041523;28;20091;-70
2023/08/29 04:15:10;;;;;;;74.50;71.13;;;;;;;20.53;46.27;101159.22;5040702;28;20076;-70
2023/08/29 04:17:36;;;;;;;74.20;70.82;;;;;;;20.51;46.26;101157.91;5044238;28;20041;-70
2023/08/29 04:20:08;;;;;;;74.00;70.60;;;;;;;20.49;46.29;101154.66;5039309;28;20043;-69
2023/08/29 04:22:34;;;;;;;75.55;72.15;;;;;;;20.47;46.28;101146.72;5038351;28;20063;-70
2023/08/29 04:24:59;;;;;;;76.60;73.00;;;;;;;20.46;46.73;101147.84;5045624;28;20536;-70
2023/08/29 04:27:24;;;;;;;77.50;74.00;;;;;;;20.45;46.78;101148.13;5040876;28;20033;-70
2023/08/29 04:29:50;;;;;;;77.72;74.13;;;;;;;20.44;46.72;101143.78;5039771;28;20036;-70
2023/08/29 04:32:15;;;;;;;75.55;72.15;;;;;;;20.43;46.76;101140.19;5044058;28;20048;-70
2023/08/29 04:34:41;;;;;;;73.68;70.38;;;;;;;20.42;46.30;101140.50;5039049;28;20060;-70
2023/08/29 04:37:06;;;;;;;73.75;70.45;;;;;;;20.40;46.41;101132.56;5039764;28;20045;-70
2023/08/29 04:39:31;;;;;;;75.43;72.03;;;;;;;20.40;46.22;101131.75;5041675;28;20113;-70
2023/08/29 04:41:57;;;;;;;76.57;72.97;;;;;;;20.38;46.61;101123.81;5038679;28;20051;-70
2023/08/29 04:44:22;;;;;;;74.18;70.88;;;;;;;20.37;46.34;101126.88;5045741;28;20080;-70
2023/08/29 04:46:48;;;;;;;75.05;71.55;;;;;;;20.35;46.45;101115.38;5041521;28;20363;-70
2023/08/29 04:49:13;;;;;;;75.63;71.38;;;;;;;20.34;46.52;101108.28;5040571;28;20091;-70
2023/08/29 04:51:40;;;;;;;73.68;70.28;;;;;;;20.32;46.65;101106.63;5047203;28;20041;-70
2023/08/29 04:54:06;;;;;;;74.95;71.50;;;;;;;20.32;46.56;101103.88;5047603;28;20084;-70
2023/08/29 04:56:32;;;;;;;75.53;72.13;;;;;;;20.30;46.70;101102.56;5042064;28;20056;-70
2023/08/29 04:58:57;;;;;;;75.05;71.65;;;;;;;20.28;46.64;101100.09;5042788;28;20103;-70
2023/08/29 05:01:23;;;;;;;74.30;70.90;;;;;;;20.28;46.29;101091.88;5040722;28;20055;-70
2023/08/29 05:03:48;;;;;;;76.97;73.43;;;;;;;20.26;46.29;101091.38;5036829;28;20472;-70
2023/08/29 05:06:14;;;;;;;74.72;71.32;;;;;;;20.25;46.42;101094.41;5048646;28;20048;-70
2023/08/29 05:08:39;;;;;;;74.78;71.07;;;;;;;20.25;46.84;101106.19;5040659;28;20029;-70
2023/08/29 05:11:05;;;;;;;74.35;71.00;;;;;;;20.23;46.51;101113.09;5043557;28;20508;-69
2023/08/29 05:13:30;;;;;;;76.00;72.50;;;;;;;20.21;46.46;101107.91;5047657;28;20037;-70
2023/08/29 05:15:55;;;;;;;73.65;70.25;;;;;;;20.20;46.40;101108.19;5053814;28;20079;-70
2023/08/29 05:18:21;;;;;;;75.95;72.35;;;;;;;20.18;46.37;101113.97;5030053;28;20038;-71
2023/08/29 05:20:46;;;;;;;74.32;70.90;;;;;;;20.18;46.85;101115.91;5050141;28;20037;-71
2023/08/29 05:23:12;;;;;;;72.53;69.20;;;;;;;20.17;46.73;101108.81;5037714;28;20049;-69
2023/08/29 05:25:37;;;;;;;71.85;68.45;;;;;;;20.14;46.29;101107.47;5041916;28;20493;-69
2023/08/29 05:28:03;;;;;;;73.88;70.38;;;;;;;20.14;46.81;101121.19;5037790;28;20441;-70
2023/08/29 05:30:30;;;;;;;71.13;67.63;;;;;;;20.12;46.60;101123.41;5043135;28;20040;-69
2023/08/29 05:32:55;;;;;;;73.72;70.32;;;;;;;20.11;46.64;101119.06;5044202;28;20099;-69
2023/08/29 05:35:21;;;;;;;71.65;68.18;;;;;;;20.11;46.33;101124.53;5054892;28;20033;-69
2023/08/29 05:37:46;;;;;;;70.38;67.13;;;;;;;20.09;46.64;101122.06;5050891;28;20040;-69
2023/08/29 05:40:12;;;;;;;73.35;69.97;;;;;;;20.07;46.39;101124.28;5042624;28;20044;-69
2023/08/29 05:42:37;;;;;;;71.53;67.80;;;;;;;20.06;46.81;101125.41;5034535;28;20080;-69
2023/08/29 05:45:03;;;;;;;72.60;69.18;;;;;;;20.06;46.81;101113.66;5035502;28;20397;-70
2023/08/29 05:47:29;;;;;;;74.18;70.78;;;;;;;20.04;46.45;101113.94;5041495;28;20052;-70
2023/08/29 05:49:54;;;;;;;72.75;69.35;;;;;;;20.04;46.78;101115.88;5042590;28;20061;-70
2023/08/29 05:52:19;;;;;;;73.00;69.60;;;;;;;20.02;46.51;101116.16;5042856;28;20043;-69
2023/08/29 05:54:45;;;;;;;72.38;69.05;;;;;;;20.02;46.40;101118.88;5048467;28;20116;-68
2023/08/29 05:57:10;;;;;;;73.40;70.10;;;;;;;20.01;46.45;101103.56;5039801;28;20037;-68
2023/08/29 05:59:36;;;;;;;70.88;67.38;;;;;;;20.01;46.62;101105.50;5047401;28;20532;-69
2023/08/29 06:02:03;;;;;;;74.53;70.85;;;;;;;20.00;46.75;101106.59;5046378;28;20358;-72
2023/08/29 06:04:28;;;;;;;70.35;66.97;;;;;;;19.98;47.02;101112.38;5038580;28;20037;-71
2023/08/29 06:06:54;;;;;;;72.55;69.18;;;;;;;19.98;46.39;101106.06;5059203;28;20044;-71
2023/08/29 06:09:19;;;;;;;71.32;67.93;;;;;;;19.97;46.86;101108.00;5052058;28;20465;-71
2023/08/29 06:11:45;;;;;;;75.10;71.50;;;;;;;19.96;46.74;101111.88;5048509;28;20033;-71
2023/08/29 06:14:10;;;;;;;73.50;70.05;;;;;;;19.96;46.78;101108.28;5039723;28;20036;-70
2023/08/29 06:16:35;;;;;;;70.35;67.00;;;;;;;19.95;46.53;101112.16;5066682;28;20365;-71
2023/08/29 06:19:01;;;;;;;71.35;67.85;;;;;;;19.94;46.87;101107.78;5048343;28;20343;-71
2023/08/29 06:21:26;;;;;;;72.85;69.45;;;;;;;19.93;47.06;101112.44;5049822;28;20397;-71
2023/08/29 06:23:52;;;;;;;73.85;70.45;;;;;;;19.92;47.02;101123.72;5033544;28;20061;-70
2023/08/29 06:26:17;;;;;;;71.68;68.22;;;;;;;19.92;46.96;101118.22;5051673;28;20389;-71
2023/08/29 06:28:42;;;;;;;72.38;68.90;;;;;;;19.91;46.54;101122.91;5037709;28;20076;-70
2023/08/29 06:31:08;;;;;;;74.55;71.05;;;;;;;19.89;46.60;101114.97;5034053;28;20040;-73
2023/08/29 06:33:37;;;;;;;70.15;66.85;;;;;;;19.90;46.97;101121.25;5049046;28;20037;-72
2023/08/29 06:36:02;;;;;;;71.30;67.95;;;;;;;19.89;47.07;101119.63;5053020;28;20039;-72
2023/08/29 06:38:28;;;;;;;70.47;67.07;;;;;;;19.88;47.11;101126.22;5045435;28;20523;-72
2023/08/29 06:40:57;;;;;;;72.22;68.55;;;;;;;19.88;46.64;101124.31;5045308;28;20096;-74
2023/08/29 06:43:23;;;;;;;69.00;65.70;;;;;;;19.86;47.03;101134.75;5033819;28;20041;-72
2023/08/29 06:45:49;;;;;;;70.13;66.85;;;;;;;19.85;46.64;101127.63;5035337;28;20033;-71
2023/08/29 06:48:14;;;;;;;70.25;66.88;;;;;;;19.85;47.11;101132.28;5043373;28;20041;-72
2023/08/29 06:50:40;;;;;;;71.22;67.80;;;;;;;19.84;46.63;101134.22;5049057;28;20029;-72
2023/08/29 06:53:06;;;;;;;72.38;68.90;;;;;;;19.84;47.04;101128.75;5042594;28;20037;-70
2023/08/29 06:55:34;;;;;;;71.47;67.97;;;;;;;19.84;46.87;101134.22;5046990;28;20128;-70
2023/08/29 06:57:59;;;;;;;71.22;67.75;;;;;;;19.83;47.11;101134.50;5050700;28;20036;-72
2023/08/29 07:00:25;;;;;;;69.60;66.18;;;;;;;19.83;46.87;101138.09;5045814;28;20040;-71
2023/08/29 07:02:50;;;;;;;69.43;66.22;;;;;;;19.82;46.75;101136.44;5044379;28;20037;-71
2023/08/29 07:05:16;;;;;;;71.97;68.22;;;;;;;19.83;46.63;101145.47;5045810;28;20037;-72
2023/08/29 07:07:43;;;;;;;69.25;65.85;;;;;;;19.82;47.06;101136.44;5049267;28;20048;-71
2023/08/29 07:10:09;;;;;;;71.75;68.35;;;;;;;19.82;46.82;101136.44;5038282;28;20049;-71
2023/08/29 07:12:35;;;;;;;71.22;67.93;;;;;;;19.82;47.14;101124.66;5043456;28;20459;-72
2023/08/29 07:15:01;;;;;;;70.50;67.07;;;;;;;19.81;47.14;101131.28;5044978;28;20041;-72
2023/08/29 07:17:27;;;;;;;71.60;68.20;;;;;;;19.81;46.76;101128.53;5053171;28;20424;-71
2023/08/29 07:19:53;;;;;;;70.80;67.43;;;;;;;19.80;47.16;101118.66;5033836;28;20087;-71
2023/08/29 07:22:18;;;;;;;70.07;66.55;;;;;;;19.80;47.13;101124.16;5030660;28;20033;-71
2023/08/29 07:24:44;;;;;;;68.70;65.40;;;;;;;19.80;46.86;101124.94;5033666;28;20037;-71
2023/08/29 07:27:09;;;;;;;71.60;68.00;;;;;;;19.80;47.40;101124.16;5035899;28;20083;-71
2023/08/29 07:29:35;;;;;;;69.57;66.28;;;;;;;19.79;47.11;101120.59;5037184;28;20393;-70
2023/08/29 07:32:00;;;;;;;70.53;67.10;;;;;;;19.79;47.00;101125.28;5038869;28;20057;-72
2023/08/29 07:34:26;;;;;;;68.55;65.35;;;;;;;19.79;47.18;101125.28;5030407;28;20076;-70
2023/08/29 07:36:51;;;;;;;75.63;71.72;;;;;;;19.80;47.27;101126.88;5045586;28;20083;-72
2023/08/29 07:39:19;;;;;;;71.10;67.60;;;;;;;19.78;47.33;101121.72;5044671;28;20045;-71
2023/08/29 07:41:45;;;;;;;70.57;67.18;;;;;;;19.80;46.90;101119.47;5037553;28;20487;-72
2023/08/29 07:44:10;;;;;;;72.28;68.78;;;;;;;19.80;47.07;101124.16;5047620;28;20028;-72
2023/08/29 07:46:36;;;;;;;69.03;65.82;;;;;;;19.79;46.87;101126.06;5045049;28;20040;-72
2023/08/29 07:49:01;;;;;;;68.85;65.43;;;;;;;19.79;47.36;101128.81;5043150;28;20038;-72
2023/08/29 07:51:26;;;;;;;68.43;65.00;;;;;;;19.81;47.09;101128.53;5042825;28;20179;-71
2023/08/29 07:53:52;;;;;;;69.45;66.13;;;;;;;19.81;46.96;101134.81;5043710;28;20427;-71
2023/08/29 07:56:17;;;;;;;69.85;66.47;;;;;;;19.81;47.06;101132.09;5043569;28;20458;-71
2023/08/29 07:58:43;;;;;;;68.93;65.60;;;;;;;19.82;46.86;101132.91;5047305;28;20041;-71
2023/08/29 08:01:08;;;;;;;68.65;65.28;;;;;;;19.82;46.92;101139.19;5043332;28;20481;-73
2023/08/29 08:03:34;;;;;;;69.47;65.97;;;;;;;19.83;47.28;101137.25;5037075;28;20096;-71
2023/08/29 08:06:00;;;;;;;71.43;67.70;;;;;;;19.83;46.94;101135.34;5030960;28;20041;-70
2023/08/29 08:08:25;;;;;;;69.38;66.18;;;;;;;19.83;47.08;101129.88;5042199;28;20076;-71
2023/08/29 08:10:50;;;;;;;70.00;66.65;;;;;;;19.84;47.52;101136.97;5043380;28;20131;-71
2023/08/29 08:13:16;;;;;;;69.78;66.18;;;;;;;19.85;47.23;101132.28;5046601;28;20123;-71
2023/08/29 08:15:41;;;;;;;70.55;66.97;;;;;;;19.85;47.49;101133.09;5046855;28;20500;-71
2023/08/29 08:18:08;;;;;;;70.88;67.40;;;;;;;19.87;47.46;101132.81;5045906;28;20044;-71
2023/08/29 08:20:34;;;;;;;68.68;65.43;;;;;;;19.88;47.43;101132.53;5045399;28;20044;-71
2023/08/29 08:22:59;;;;;;;66.75;63.65;;;;;;;19.90;47.54;101132.22;5055081;28;20453;-71
2023/08/29 08:25:26;;;;;;;70.22;66.93;;;;;;;19.90;47.28;101137.72;5056660;28;20037;-71
2023/08/29 08:27:51;;;;;;;67.82;64.63;;;;;;;19.93;47.61;101133.56;5046437;28;20401;-71
2023/08/29 08:30:16;;;;;;;69.95;66.53;;;;;;;19.93;47.28;101131.63;5047847;28;20067;-71
2023/08/29 08:32:43;;;;;;;68.38;65.18;;;;;;;19.95;47.13;101136.81;5044792;28;20040;-71
2023/08/29 08:35:10;;;;;;;71.85;68.30;;;;;;;19.96;47.12;101119.25;5047269;28;20083;-71
2023/08/29 08:37:35;;;;;;;68.60;65.38;;;;;;;19.98;47.36;101114.28;5030907;28;20030;-71
2023/08/29 08:40:09;;;;;;;73.60;69.35;;;;;;;19.99;47.78;101121.41;5029630;28;20489;-72
2023/08/29 08:42:36;;;;;;;70.30;66.60;;;;;;;20.01;47.33;101119.22;5037344;28;20033;-77
2023/08/29 08:45:05;;;;;;;69.95;66.65;;;;;;;20.03;47.34;101122.44;5045035;28;20120;-70
2023/08/29 08:47:33;;;;;;;69.90;66.60;;;;;;;20.04;47.38;101121.34;5031702;28;20072;-70
2023/08/29 08:49:58;;;;;;;72.03;68.53;;;;;;;20.05;47.45;101126.50;5033222;28;20029;-70
2023/08/29 08:52:24;;;;;;;69.55;66.25;;;;;;;20.06;47.90;101117.19;5041462;28;20787;-70
2023/08/29 08:54:49;;;;;;;70.80;67.20;;;;;;;20.10;47.51;101117.41;5040683;28;20029;-70
2023/08/29 08:57:15;;;;;;;71.47;67.88;;;;;;;20.11;47.90;101127.28;5034481;28;20056;-70
2023/08/29 08:59:41;;;;;;;70.25;66.82;;;;;;;20.13;47.80;101118.72;5032331;28;20033;-71
2023/08/29 09:02:13;;;;;;;69.60;66.30;;;;;;;20.16;47.52;101118.13;5039819;28;20513;-69
2023/08/29 09:04:38;;;;;;;70.15;66.70;;;;;;;20.17;47.60;101119.78;5045465;28;20033;-70
2023/08/29 09:07:04;;;;;;;70.97;67.43;;;;;;;20.19;47.52;101121.13;5045158;28;20098;-72
2023/08/29 09:09:29;;;;;;;70.88;67.38;;;;;;;20.20;47.63;101119.97;5045005;28;20102;-69
2023/08/29 09:11:56;;;;;;;70.53;67.00;;;;;;;20.23;48.00;101127.63;5039330;28;20029;-71
2023/08/29 09:14:23;;;;;;;72.75;69.05;;;;;;;20.25;47.87;101127.31;5036816;28;20051;-71
2023/08/29 09:17:07;;;;;;;70.90;67.40;;;;;;;20.25;48.12;101116.34;5048889;28;20025;-71
2023/08/29 09:19:34;;;;;;;71.10;67.80;;;;;;;20.26;48.18;101121.56;5047715;28;20036;-71
2023/08/29 09:21:59;;;;;;;70.32;66.88;;;;;;;20.27;48.24;101114.94;5051051;28;20048;-71
2023/08/29 09:24:28;;;;;;;70.47;66.97;;;;;;;20.28;48.07;101118.50;5039540;28;20033;-71
2023/08/29 09:26:53;;;;;;;69.82;66.38;;;;;;;20.28;48.48;101119.28;5049296;28;20025;-70
2023/08/29 09:29:20;;;;;;;71.05;67.55;;;;;;;20.32;48.58;101116.78;5047389;28;20045;-71
2023/08/29 09:31:47;;;;;;;69.10;65.80;;;;;;;20.33;48.14;101110.19;5043224;28;20049;-71
2023/08/29 09:34:45;;;;;;;72.00;68.53;;;;;;;20.34;48.41;101109.09;5033711;28;20060;-71
2023/08/29 09:37:14;;;;;;;69.28;65.95;;;;;;;20.38;48.27;101118.31;5015384;28;20139;-73
2023/08/29 09:39:39;;;;;;;;;;;;;;;20.36;48.19;101115.09;5051169;28;20080;-71
2023/08/29 09:42:07;;;;;;;66.32;63.28;;;;;;;20.41;48.35;101115.00;5044853;28;19956;-71
2023/08/29 09:44:37;;;;;;;67.83;64.70;;;;;;;20.43;48.27;101112.75;5040166;28;20128;-71
2023/08/29 09:47:04;;;;;;;69.80;66.50;;;;;;;20.46;48.48;101109.44;5047161;28;20087;-71
2023/08/29 09:49:40;;;;;;;71.75;68.30;;;;;;;20.49;48.33;101106.06;5044882;28;20370;-71
2023/08/29 09:52:06;;;;;;;69.50;66.22;;;;;;;20.53;48.13;101111.78;5038562;28;20029;-71
2023/08/29 09:54:33;;;;;;;70.20;66.68;;;;;;;20.56;48.56;101108.44;5041483;28;20195;-71
2023/08/29 09:57:01;;;;;;;70.90;67.60;;;;;;;20.59;48.60;101107.88;5047363;28;20444;-71
2023/08/29 09:59:29;;;;;;;72.72;69.22;;;;;;;20.61;48.27;101102.88;5042429;28;20033;-71
2023/08/29 10:01:55;;;;;;;70.97;67.67;;;;;;;20.64;48.64;101104.22;5043476;28;20033;-72
2023/08/29 10:04:22;;;;;;;74.72;71.15;;;;;;;20.66;48.52;101107.47;5053667;28;20045;-70
2023/08/29 10:06:50;;;;;;;72.40;68.90;;;;;;;20.69;48.38;101096.72;5048109;28;20048;-71
2023/08/29 10:09:18;;;;;;;;;;;;;;;20.67;48.41;101098.94;5064665;28;20033;-71
2023/08/29 10:11:44;;;;;;;69.68;66.30;;;;;;;20.70;48.64;101098.31;5036032;28;19952;-71
2023/08/29 10:14:10;;;;;;;71.57;68.28;;;;;;;20.73;48.57;101100.47;5046317;28;20446;-71
2023/08/29 10:16:37;;;;;;;73.55;69.90;;;;;;;20.77;48.23;101088.91;5036709;28;20068;-72
2023/08/29 10:19:02;;;;;;;72.15;68.80;;;;;;;20.79;48.65;101092.13;5035000;28;20077;-70
2023/08/29 10:21:29;;;;;;;75.70;72.20;;;;;;;20.82;48.39;101094.28;5047442;28;20119;-70
2023/08/29 10:23:54;;;;;;;73.60;70.20;;;;;;;20.85;48.75;101091.75;5042208;28;20071;-70
2023/08/29 10:26:21;;;;;;;74.05;70.55;;;;;;;20.86;48.55;101092.53;5040308;28;20132;-69
2023/08/29 10:28:48;;;;;;;76.45;72.65;;;;;;;20.89;48.55;101094.69;5040555;28;20045;-71
2023/08/29 10:31:15;;;;;;;75.88;72.30;;;;;;;20.91;48.67;101085.03;5044357;28;20397;-70
2023/08/29 10:33:41;;;;;;;78.85;74.60;;;;;;;20.92;48.41;101088.59;5039102;28;20041;-70
2023/08/29 10:36:10;;;;;;;76.43;72.95;;;;;;;20.95;49.16;101090.72;5039322;28;20102;-70
2023/08/29 10:38:39;;;;;;;76.47;72.97;;;;;;;20.97;48.69;101088.50;5049884;28;20025;-70
2023/08/29 10:41:09;;;;;;;76.70;73.10;;;;;;;20.99;48.92;101088.19;5044568;28;20476;-70
2023/08/29 10:43:35;;;;;;;79.20;75.22;;;;;;;21.01;49.23;101077.72;5039326;28;20415;-70
2023/08/29 10:46:14;;;;;;;76.70;73.10;;;;;;;21.03;48.71;101081.78;5053370;28;20054;-70
2023/08/29 10:48:39;;;;;;;78.30;74.60;;;;;;;21.05;48.91;101078.75;5045748;28;20029;-71
2023/08/29 10:51:10;;;;;;;78.07;74.30;;;;;;;21.08;48.94;101070.69;5051295;28;20465;-70
2023/08/29 10:54:05;;;;;;;77.82;74.20;;;;;;;21.08;48.87;101076.19;5037981;28;20029;-70
2023/08/29 10:56:42;;;;;;;77.05;73.43;;;;;;;21.12;49.38;101068.97;5046396;28;20526;-70
2023/08/29 10:59:32;;;;;;;76.03;72.38;;;;;;;21.14;49.03;101065.91;5046739;28;20124;-70
2023/08/29 11:02:27;;;;;;;75.13;71.63;;;;;;;21.16;49.28;101063.66;5035063;28;20036;-70
2023/08/29 11:05:14;;;;;;;74.38;70.95;;;;;;;21.18;49.46;101062.25;5052005;28;20032;-71
2023/08/29 11:07:40;;;;;;;77.78;74.13;;;;;;;21.23;48.87;101055.03;5055980;28;20044;-71